Airfield :
LOGIN :

Register | Disclaimer

   EN    FR    IT 

 










Legend :    VFR   Marginal VFR   IFR   Intensive IFR   Very Intensive IFR
Visi :
Ceiling :
>= 8 km
>= 3000ft
5 to 8 km
1000 to 3000 ft
1500m to 5 km
500 to 1000 ft
800 to 1500m
200 to 500 ft
< 800m
< 200 ft
Symbols :   Thunderstorms  Fog  Heavy snow  Heavy precipitations  Wind > 20 kt
SIGMETs :     Misc.  Thunderstorms  Icing  Turbulence  Mountain Waves  Volcanic Ashes







- Airport Elevation : 512 ft
- IATA code : URO
- Download approach charts


LFOP - Rouen Vallée de Seine

CURRENT METAR :
  • 170500Z AUTO 14003KT CAVOK 12/12 Q1020

EXPIRED METARs :
  • 170430Z AUTO 16002KT CAVOK 11/11 Q1020
  • 170400Z AUTO 15003KT 9999 2900 NSC 09/09 Q1019
  • 170330Z AUTO 16003KT 8000 NSC 10/09 Q1019
  • 170300Z AUTO 00000KT CAVOK 10/10 Q1020
  • 170230Z AUTO 16002KT CAVOK 10/10 Q1019

TAF TAF LFOP
Valid from the 17 at 06:00 until the 18 at 06:00 UTC


170500Z 1706/1806 15005KT CAVOK
BECMG 1715/1717 36010KT
BECMG 1800/1803 06003KT
ATIS : +33 2 35 80 80 34
Met : +33 2 32 86 52 80
No reported NOTAMs for that airfield.



MET'MAP, your aeronautical weather chart ! - Copyright ORBIFLY December 2007 - Disclaimer

ORBIFLY MET'MAP TEAM :

Programming & Development : Alexandra Zaïnal
Concept & Development : Baudouin d'Aumeries
Co-Development & Prog : Marc-Olivier Méhu
Technical & hardware support : Manuel Goepfert

Contact : metmap@orbifly.com




SOURCES & CREDITS :

   NOAA